sensor_id;sensor_type;location;lat;lon;timestamp;temperature;humidity
2389;DHT22;1205;47.984;7.668;2022-11-15T00:00:50;10.90;99.90
2389;DHT22;1205;47.984;7.668;2022-11-15T00:03:16;10.90;99.90
2389;DHT22;1205;47.984;7.668;2022-11-15T00:05:42;10.90;99.90
2389;DHT22;1205;47.984;7.668;2022-11-15T00:08:08;11.00;99.90
2389;DHT22;1205;47.984;7.668;2022-11-15T00:10:33;10.90;99.90
2389;DHT22;1205;47.984;7.668;2022-11-15T00:12:59;10.90;99.90
2389;DHT22;1205;47.984;7.668;2022-11-15T00:15:25;10.90;99.90
2389;DHT22;1205;47.984;7.668;2022-11-15T00:17:50;10.90;99.90
2389;DHT22;1205;47.984;7.668;2022-11-15T00:20:17;10.90;99.90
2389;DHT22;1205;47.984;7.668;2022-11-15T00:22:43;10.90;99.90
2389;DHT22;1205;47.984;7.668;2022-11-15T00:25:08;10.80;99.90
2389;DHT22;1205;47.984;7.668;2022-11-15T00:27:34;10.80;99.90
2389;DHT22;1205;47.984;7.668;2022-11-15T00:30:00;10.90;99.90
2389;DHT22;1205;47.984;7.668;2022-11-15T00:32:26;10.80;99.90
2389;DHT22;1205;47.984;7.668;2022-11-15T00:34:51;10.90;99.90
2389;DHT22;1205;47.984;7.668;2022-11-15T00:37:17;10.90;99.90
2389;DHT22;1205;47.984;7.668;2022-11-15T00:39:42;10.90;99.90
2389;DHT22;1205;47.984;7.668;2022-11-15T00:42:08;10.90;99.90
2389;DHT22;1205;47.984;7.668;2022-11-15T00:44:33;10.90;99.90
2389;DHT22;1205;47.984;7.668;2022-11-15T00:46:59;10.90;99.90
2389;DHT22;1205;47.984;7.668;2022-11-15T00:49:25;10.80;99.90
2389;DHT22;1205;47.984;7.668;2022-11-15T00:51:51;10.90;99.90
2389;DHT22;1205;47.984;7.668;2022-11-15T00:54:17;10.80;99.90
2389;DHT22;1205;47.984;7.668;2022-11-15T00:56:42;10.90;99.90
2389;DHT22;1205;47.984;7.668;2022-11-15T00:59:08;10.90;99.90
2389;DHT22;1205;47.984;7.668;2022-11-15T01:01:33;10.90;99.90
2389;DHT22;1205;47.984;7.668;2022-11-15T01:03:59;11.00;99.90
2389;DHT22;1205;47.984;7.668;2022-11-15T01:06:24;11.00;99.90
2389;DHT22;1205;47.984;7.668;2022-11-15T01:08:50;11.00;99.90
2389;DHT22;1205;47.984;7.668;2022-11-15T01:11:16;10.90;99.90
2389;DHT22;1205;47.984;7.668;2022-11-15T01:13:41;10.90;99.90
2389;DHT22;1205;47.984;7.668;2022-11-15T01:16:09;11.00;99.90
2389;DHT22;1205;47.984;7.668;2022-11-15T01:18:35;11.00;99.90
2389;DHT22;1205;47.984;7.668;2022-11-15T01:21:11;11.00;99.90
2389;DHT22;1205;47.984;7.668;2022-11-15T01:23:37;11.10;99.90
2389;DHT22;1205;47.984;7.668;2022-11-15T01:26:05;11.10;99.90
2389;DHT22;1205;47.984;7.668;2022-11-15T01:28:32;11.00;99.90
2389;DHT22;1205;47.984;7.668;2022-11-15T01:31:00;10.90;99.90
2389;DHT22;1205;47.984;7.668;2022-11-15T01:33:26;10.90;99.90
2389;DHT22;1205;47.984;7.668;2022-11-15T01:35:51;10.90;99.90
2389;DHT22;1205;47.984;7.668;2022-11-15T01:38:17;10.90;99.90
2389;DHT22;1205;47.984;7.668;2022-11-15T01:40:43;10.90;99.90
2389;DHT22;1205;47.984;7.668;2022-11-15T01:43:38;10.90;99.90
2389;DHT22;1205;47.984;7.668;2022-11-15T01:46:27;11.00;99.90
2389;DHT22;1205;47.984;7.668;2022-11-15T01:48:54;11.00;99.90
2389;DHT22;1205;47.984;7.668;2022-11-15T01:51:24;11.00;99.90
2389;DHT22;1205;47.984;7.668;2022-11-15T01:53:54;11.00;99.90
2389;DHT22;1205;47.984;7.668;2022-11-15T01:56:24;11.00;99.90
2389;DHT22;1205;47.984;7.668;2022-11-15T01:58:51;11.00;99.90
2389;DHT22;1205;47.984;7.668;2022-11-15T02:01:18;11.00;99.90
2389;DHT22;1205;47.984;7.668;2022-11-15T02:03:52;11.10;99.90
2389;DHT22;1205;47.984;7.668;2022-11-15T02:06:21;11.10;99.90
2389;DHT22;1205;47.984;7.668;2022-11-15T02:08:47;11.00;99.90
2389;DHT22;1205;47.984;7.668;2022-11-15T02:11:13;11.00;99.90
2389;DHT22;1205;47.984;7.668;2022-11-15T02:13:39;11.00;99.90
2389;DHT22;1205;47.984;7.668;2022-11-15T02:18:37;10.90;99.90
2389;DHT22;1205;47.984;7.668;2022-11-15T02:21:59;10.90;99.90
2389;DHT22;1205;47.984;7.668;2022-11-15T02:24:25;10.80;99.90
2389;DHT22;1205;47.984;7.668;2022-11-15T02:32:58;10.80;99.90
2389;DHT22;1205;47.984;7.668;2022-11-15T02:35:40;10.80;99.90
2389;DHT22;1205;47.984;7.668;2022-11-15T02:41:14;10.80;99.90
2389;DHT22;1205;47.984;7.668;2022-11-15T02:43:58;10.80;99.90
2389;DHT22;1205;47.984;7.668;2022-11-15T02:46:36;10.70;99.90
2389;DHT22;1205;47.984;7.668;2022-11-15T02:49:23;10.70;99.90
2389;DHT22;1205;47.984;7.668;2022-11-15T02:51:51;10.70;99.90
2389;DHT22;1205;47.984;7.668;2022-11-15T02:54:28;10.70;99.90
2389;DHT22;1205;47.984;7.668;2022-11-15T02:56:58;10.80;99.90
2389;DHT22;1205;47.984;7.668;2022-11-15T02:59:43;10.80;99.90
2389;DHT22;1205;47.984;7.668;2022-11-15T03:07:40;10.70;99.90
2389;DHT22;1205;47.984;7.668;2022-11-15T03:16:04;10.80;99.90
2389;DHT22;1205;47.984;7.668;2022-11-15T03:18:35;10.90;99.90
2389;DHT22;1205;47.984;7.668;2022-11-15T03:21:05;10.80;99.90
2389;DHT22;1205;47.984;7.668;2022-11-15T03:23:33;10.80;99.90
2389;DHT22;1205;47.984;7.668;2022-11-15T03:26:00;10.80;99.90
2389;DHT22;1205;47.984;7.668;2022-11-15T03:28:36;10.80;99.90
2389;DHT22;1205;47.984;7.668;2022-11-15T03:31:03;10.90;99.90
2389;DHT22;1205;47.984;7.668;2022-11-15T03:33:51;10.90;99.90
2389;DHT22;1205;47.984;7.668;2022-11-15T03:36:18;10.90;99.90
2389;DHT22;1205;47.984;7.668;2022-11-15T03:38:44;10.90;99.90
2389;DHT22;1205;47.984;7.668;2022-11-15T03:41:23;10.90;99.90
2389;DHT22;1205;47.984;7.668;2022-11-15T03:43:57;10.90;99.90
2389;DHT22;1205;47.984;7.668;2022-11-15T03:46:32;10.90;99.90
2389;DHT22;1205;47.984;7.668;2022-11-15T03:49:05;11.00;99.90
2389;DHT22;1205;47.984;7.668;2022-11-15T03:51:32;11.00;99.90
2389;DHT22;1205;47.984;7.668;2022-11-15T03:53:57;11.00;99.90
2389;DHT22;1205;47.984;7.668;2022-11-15T03:56:23;10.90;99.90
2389;DHT22;1205;47.984;7.668;2022-11-15T03:58:48;11.00;99.90
2389;DHT22;1205;47.984;7.668;2022-11-15T04:01:14;11.00;99.90
2389;DHT22;1205;47.984;7.668;2022-11-15T04:03:39;11.00;99.90
2389;DHT22;1205;47.984;7.668;2022-11-15T04:06:05;11.00;99.90
2389;DHT22;1205;47.984;7.668;2022-11-15T04:08:31;11.00;99.90
2389;DHT22;1205;47.984;7.668;2022-11-15T04:10:56;11.00;99.90
2389;DHT22;1205;47.984;7.668;2022-11-15T04:13:22;11.10;99.90
2389;DHT22;1205;47.984;7.668;2022-11-15T04:15:47;11.10;99.90
2389;DHT22;1205;47.984;7.668;2022-11-15T04:18:13;11.10;99.90
2389;DHT22;1205;47.984;7.668;2022-11-15T04:20:38;11.10;99.90
2389;DHT22;1205;47.984;7.668;2022-11-15T04:23:23;11.10;99.90
2389;DHT22;1205;47.984;7.668;2022-11-15T04:26:10;11.20;99.90
2389;DHT22;1205;47.984;7.668;2022-11-15T04:28:37;11.10;99.90
2389;DHT22;1205;47.984;7.668;2022-11-15T04:31:26;11.20;99.90
2389;DHT22;1205;47.984;7.668;2022-11-15T04:33:52;11.10;99.90
2389;DHT22;1205;47.984;7.668;2022-11-15T04:36:19;11.10;99.90
2389;DHT22;1205;47.984;7.668;2022-11-15T04:39:03;11.10;99.90
2389;DHT22;1205;47.984;7.668;2022-11-15T04:41:29;11.10;99.90
2389;DHT22;1205;47.984;7.668;2022-11-15T04:43:55;11.10;99.90
2389;DHT22;1205;47.984;7.668;2022-11-15T04:46:21;11.10;99.90
2389;DHT22;1205;47.984;7.668;2022-11-15T04:48:46;11.10;99.90
2389;DHT22;1205;47.984;7.668;2022-11-15T04:51:12;11.10;99.90
2389;DHT22;1205;47.984;7.668;2022-11-15T04:53:37;11.20;99.90
2389;DHT22;1205;47.984;7.668;2022-11-15T04:56:03;11.20;99.90
2389;DHT22;1205;47.984;7.668;2022-11-15T04:58:29;11.20;99.90
2389;DHT22;1205;47.984;7.668;2022-11-15T05:00:54;11.20;99.90
2389;DHT22;1205;47.984;7.668;2022-11-15T05:03:20;11.20;99.90
2389;DHT22;1205;47.984;7.668;2022-11-15T05:06:04;11.30;99.90
2389;DHT22;1205;47.984;7.668;2022-11-15T05:08:30;11.30;99.90
2389;DHT22;1205;47.984;7.668;2022-11-15T05:10:56;11.30;99.90
2389;DHT22;1205;47.984;7.668;2022-11-15T05:13:21;11.30;99.90
2389;DHT22;1205;47.984;7.668;2022-11-15T05:15:47;11.30;99.90
2389;DHT22;1205;47.984;7.668;2022-11-15T05:18:13;11.30;99.90
2389;DHT22;1205;47.984;7.668;2022-11-15T05:20:38;11.30;99.90
2389;DHT22;1205;47.984;7.668;2022-11-15T05:23:04;11.30;99.90
2389;DHT22;1205;47.984;7.668;2022-11-15T05:25:29;11.30;99.90
2389;DHT22;1205;47.984;7.668;2022-11-15T05:27:55;11.30;99.90
2389;DHT22;1205;47.984;7.668;2022-11-15T05:30:21;11.30;99.90
2389;DHT22;1205;47.984;7.668;2022-11-15T05:32:47;11.30;99.90
2389;DHT22;1205;47.984;7.668;2022-11-15T05:35:18;11.20;99.90
2389;DHT22;1205;47.984;7.668;2022-11-15T05:37:44;11.30;99.90
2389;DHT22;1205;47.984;7.668;2022-11-15T05:40:10;11.30;99.90
2389;DHT22;1205;47.984;7.668;2022-11-15T05:42:36;11.30;99.90
2389;DHT22;1205;47.984;7.668;2022-11-15T05:45:03;11.30;99.90
2389;DHT22;1205;47.984;7.668;2022-11-15T05:47:31;11.30;99.90
2389;DHT22;1205;47.984;7.668;2022-11-15T05:49:58;11.30;99.90
2389;DHT22;1205;47.984;7.668;2022-11-15T05:52:28;11.30;99.90
2389;DHT22;1205;47.984;7.668;2022-11-15T05:54:56;11.30;99.90
2389;DHT22;1205;47.984;7.668;2022-11-15T05:57:22;11.20;99.90
2389;DHT22;1205;47.984;7.668;2022-11-15T05:59:47;11.30;99.90
2389;DHT22;1205;47.984;7.668;2022-11-15T06:02:13;11.30;99.90
2389;DHT22;1205;47.984;7.668;2022-11-15T06:04:38;11.30;99.90
2389;DHT22;1205;47.984;7.668;2022-11-15T06:07:04;11.30;99.90
2389;DHT22;1205;47.984;7.668;2022-11-15T06:09:30;11.20;99.90
2389;DHT22;1205;47.984;7.668;2022-11-15T06:11:55;11.20;99.90
2389;DHT22;1205;47.984;7.668;2022-11-15T06:14:21;11.20;99.90
2389;DHT22;1205;47.984;7.668;2022-11-15T06:16:46;11.20;99.90
2389;DHT22;1205;47.984;7.668;2022-11-15T06:19:12;11.20;99.90
2389;DHT22;1205;47.984;7.668;2022-11-15T06:21:37;11.20;99.90
2389;DHT22;1205;47.984;7.668;2022-11-15T06:24:04;11.20;99.90
2389;DHT22;1205;47.984;7.668;2022-11-15T06:26:30;11.20;99.90
2389;DHT22;1205;47.984;7.668;2022-11-15T06:28:56;11.20;99.90
2389;DHT22;1205;47.984;7.668;2022-11-15T06:31:23;11.20;99.90
2389;DHT22;1205;47.984;7.668;2022-11-15T06:33:48;11.20;99.90
2389;DHT22;1205;47.984;7.668;2022-11-15T06:36:15;11.10;99.90
2389;DHT22;1205;47.984;7.668;2022-11-15T06:38:45;11.20;99.90
2389;DHT22;1205;47.984;7.668;2022-11-15T06:41:11;11.10;99.90
2389;DHT22;1205;47.984;7.668;2022-11-15T06:43:38;11.10;99.90
2389;DHT22;1205;47.984;7.668;2022-11-15T06:46:05;11.10;99.90
2389;DHT22;1205;47.984;7.668;2022-11-15T06:48:32;11.10;99.90
2389;DHT22;1205;47.984;7.668;2022-11-15T06:50:59;11.10;99.90
2389;DHT22;1205;47.984;7.668;2022-11-15T06:53:25;11.10;99.90
2389;DHT22;1205;47.984;7.668;2022-11-15T06:55:51;11.10;99.90
2389;DHT22;1205;47.984;7.668;2022-11-15T06:58:17;11.10;99.90
2389;DHT22;1205;47.984;7.668;2022-11-15T07:00:43;11.10;99.90
2389;DHT22;1205;47.984;7.668;2022-11-15T07:03:09;11.10;99.90
2389;DHT22;1205;47.984;7.668;2022-11-15T07:05:35;11.10;99.90
2389;DHT22;1205;47.984;7.668;2022-11-15T07:08:01;11.10;99.90
2389;DHT22;1205;47.984;7.668;2022-11-15T07:10:27;11.20;99.90
2389;DHT22;1205;47.984;7.668;2022-11-15T07:12:54;11.10;99.90
2389;DHT22;1205;47.984;7.668;2022-11-15T07:15:23;11.10;99.90
2389;DHT22;1205;47.984;7.668;2022-11-15T07:17:49;11.10;99.90
2389;DHT22;1205;47.984;7.668;2022-11-15T07:20:15;11.10;99.90
2389;DHT22;1205;47.984;7.668;2022-11-15T07:22:41;11.20;99.90
2389;DHT22;1205;47.984;7.668;2022-11-15T07:25:07;11.20;99.90
2389;DHT22;1205;47.984;7.668;2022-11-15T07:27:33;11.30;99.90
2389;DHT22;1205;47.984;7.668;2022-11-15T07:29:59;11.30;99.90
2389;DHT22;1205;47.984;7.668;2022-11-15T07:32:24;11.40;99.90
2389;DHT22;1205;47.984;7.668;2022-11-15T07:34:50;11.40;99.90
2389;DHT22;1205;47.984;7.668;2022-11-15T07:37:15;11.40;99.90
2389;DHT22;1205;47.984;7.668;2022-11-15T07:39:42;11.40;99.90
2389;DHT22;1205;47.984;7.668;2022-11-15T07:42:08;11.50;99.90
2389;DHT22;1205;47.984;7.668;2022-11-15T07:44:52;11.50;99.90
2389;DHT22;1205;47.984;7.668;2022-11-15T07:47:18;11.60;99.90
2389;DHT22;1205;47.984;7.668;2022-11-15T07:49:43;11.60;99.90
2389;DHT22;1205;47.984;7.668;2022-11-15T07:52:09;11.60;99.90
2389;DHT22;1205;47.984;7.668;2022-11-15T07:54:35;11.70;99.90
2389;DHT22;1205;47.984;7.668;2022-11-15T07:57:00;11.70;99.90
2389;DHT22;1205;47.984;7.668;2022-11-15T07:59:26;11.70;99.90
2389;DHT22;1205;47.984;7.668;2022-11-15T08:01:51;11.70;99.90
2389;DHT22;1205;47.984;7.668;2022-11-15T08:04:17;11.80;99.90
2389;DHT22;1205;47.984;7.668;2022-11-15T08:06:42;11.80;99.90
2389;DHT22;1205;47.984;7.668;2022-11-15T08:09:08;11.80;99.90
2389;DHT22;1205;47.984;7.668;2022-11-15T08:11:34;11.80;99.90
2389;DHT22;1205;47.984;7.668;2022-11-15T08:13:59;11.80;99.90
2389;DHT22;1205;47.984;7.668;2022-11-15T08:16:25;11.90;99.90
2389;DHT22;1205;47.984;7.668;2022-11-15T08:18:51;11.90;99.90
2389;DHT22;1205;47.984;7.668;2022-11-15T08:21:19;11.90;99.90
2389;DHT22;1205;47.984;7.668;2022-11-15T08:23:45;11.90;99.90
2389;DHT22;1205;47.984;7.668;2022-11-15T08:26:11;12.00;99.90
2389;DHT22;1205;47.984;7.668;2022-11-15T08:28:37;12.00;99.90
2389;DHT22;1205;47.984;7.668;2022-11-15T08:31:03;12.00;99.90
2389;DHT22;1205;47.984;7.668;2022-11-15T08:33:30;11.90;99.90
2389;DHT22;1205;47.984;7.668;2022-11-15T08:35:57;11.80;99.90
2389;DHT22;1205;47.984;7.668;2022-11-15T08:38:23;11.90;99.90
2389;DHT22;1205;47.984;7.668;2022-11-15T08:40:50;11.90;99.90
2389;DHT22;1205;47.984;7.668;2022-11-15T08:43:17;12.00;99.90
2389;DHT22;1205;47.984;7.668;2022-11-15T08:45:42;12.00;99.90
2389;DHT22;1205;47.984;7.668;2022-11-15T08:48:08;12.00;99.90
2389;DHT22;1205;47.984;7.668;2022-11-15T08:50:33;12.00;99.90
2389;DHT22;1205;47.984;7.668;2022-11-15T08:53:05;12.10;99.90
2389;DHT22;1205;47.984;7.668;2022-11-15T08:55:31;12.10;99.90
2389;DHT22;1205;47.984;7.668;2022-11-15T08:57:57;12.20;99.90
2389;DHT22;1205;47.984;7.668;2022-11-15T09:00:23;12.20;99.90
2389;DHT22;1205;47.984;7.668;2022-11-15T09:02:49;12.20;99.90
2389;DHT22;1205;47.984;7.668;2022-11-15T09:05:14;12.20;99.90
2389;DHT22;1205;47.984;7.668;2022-11-15T09:07:40;12.30;99.90
2389;DHT22;1205;47.984;7.668;2022-11-15T09:10:06;12.30;99.90
2389;DHT22;1205;47.984;7.668;2022-11-15T09:12:32;12.30;99.90
2389;DHT22;1205;47.984;7.668;2022-11-15T09:14:58;12.40;99.90
2389;DHT22;1205;47.984;7.668;2022-11-15T09:17:23;12.30;99.90
2389;DHT22;1205;47.984;7.668;2022-11-15T09:19:49;12.40;99.90
2389;DHT22;1205;47.984;7.668;2022-11-15T09:22:14;12.40;99.90
2389;DHT22;1205;47.984;7.668;2022-11-15T09:24:40;12.50;99.90
2389;DHT22;1205;47.984;7.668;2022-11-15T09:27:06;12.60;99.90
2389;DHT22;1205;47.984;7.668;2022-11-15T09:29:32;12.70;99.90
2389;DHT22;1205;47.984;7.668;2022-11-15T09:31:57;12.80;99.90
2389;DHT22;1205;47.984;7.668;2022-11-15T09:34:23;12.80;99.90
2389;DHT22;1205;47.984;7.668;2022-11-15T09:36:48;12.90;99.90
2389;DHT22;1205;47.984;7.668;2022-11-15T09:39:14;13.00;99.90
2389;DHT22;1205;47.984;7.668;2022-11-15T09:50:19;13.00;99.90
2389;DHT22;1205;47.984;7.668;2022-11-15T09:52:48;13.20;99.90
2389;DHT22;1205;47.984;7.668;2022-11-15T09:55:14;13.70;99.90
2389;DHT22;1205;47.984;7.668;2022-11-15T10:00:29;14.30;99.90
2389;DHT22;1205;47.984;7.668;2022-11-15T10:03:29;14.40;99.90
2389;DHT22;1205;47.984;7.668;2022-11-15T10:06:00;14.30;99.90
2389;DHT22;1205;47.984;7.668;2022-11-15T10:11:16;14.00;99.90
2389;DHT22;1205;47.984;7.668;2022-11-15T10:13:44;14.10;99.90
2389;DHT22;1205;47.984;7.668;2022-11-15T10:24:46;13.90;99.90
2389;DHT22;1205;47.984;7.668;2022-11-15T10:27:16;13.90;99.90
2389;DHT22;1205;47.984;7.668;2022-11-15T10:29:44;14.00;99.90
2389;DHT22;1205;47.984;7.668;2022-11-15T10:32:12;14.10;99.90
2389;DHT22;1205;47.984;7.668;2022-11-15T10:34:37;14.10;99.90
2389;DHT22;1205;47.984;7.668;2022-11-15T10:37:03;14.10;99.90
2389;DHT22;1205;47.984;7.668;2022-11-15T10:39:29;14.30;99.90
2389;DHT22;1205;47.984;7.668;2022-11-15T10:41:55;14.20;99.90
2389;DHT22;1205;47.984;7.668;2022-11-15T10:44:26;14.30;99.90
2389;DHT22;1205;47.984;7.668;2022-11-15T10:49:21;14.10;99.90
2389;DHT22;1205;47.984;7.668;2022-11-15T10:51:49;14.10;99.90
2389;DHT22;1205;47.984;7.668;2022-11-15T10:54:54;14.00;99.90
2389;DHT22;1205;47.984;7.668;2022-11-15T10:57:23;14.00;99.90
2389;DHT22;1205;47.984;7.668;2022-11-15T11:00:35;14.00;99.90
2389;DHT22;1205;47.984;7.668;2022-11-15T11:05:28;13.90;99.90
2389;DHT22;1205;47.984;7.668;2022-11-15T11:08:03;13.90;99.90
2389;DHT22;1205;47.984;7.668;2022-11-15T11:10:29;13.90;99.90
2389;DHT22;1205;47.984;7.668;2022-11-15T11:12:55;13.90;99.90
2389;DHT22;1205;47.984;7.668;2022-11-15T11:15:24;13.90;99.90
2389;DHT22;1205;47.984;7.668;2022-11-15T11:18:12;13.80;99.90
2389;DHT22;1205;47.984;7.668;2022-11-15T11:20:46;13.80;99.90
2389;DHT22;1205;47.984;7.668;2022-11-15T11:29:25;13.90;99.90
2389;DHT22;1205;47.984;7.668;2022-11-15T11:42:53;14.10;99.90
2389;DHT22;1205;47.984;7.668;2022-11-15T11:48:12;14.20;99.90
2389;DHT22;1205;47.984;7.668;2022-11-15T11:50:40;14.00;99.90
2389;DHT22;1205;47.984;7.668;2022-11-15T11:53:30;13.90;99.90
2389;DHT22;1205;47.984;7.668;2022-11-15T11:56:05;13.90;99.90
2389;DHT22;1205;47.984;7.668;2022-11-15T11:58:43;14.00;99.90
2389;DHT22;1205;47.984;7.668;2022-11-15T12:01:23;14.00;99.90
2389;DHT22;1205;47.984;7.668;2022-11-15T12:04:03;13.90;99.90
2389;DHT22;1205;47.984;7.668;2022-11-15T12:09:55;14.10;99.90
2389;DHT22;1205;47.984;7.668;2022-11-15T12:12:38;14.10;99.90
2389;DHT22;1205;47.984;7.668;2022-11-15T12:15:18;14.40;99.90
2389;DHT22;1205;47.984;7.668;2022-11-15T12:17:46;14.20;99.90
2389;DHT22;1205;47.984;7.668;2022-11-15T12:20:25;14.20;99.90
2389;DHT22;1205;47.984;7.668;2022-11-15T12:25:52;14.20;99.90
2389;DHT22;1205;47.984;7.668;2022-11-15T12:33:41;14.00;99.90
2389;DHT22;1205;47.984;7.668;2022-11-15T12:39:10;14.20;99.90
2389;DHT22;1205;47.984;7.668;2022-11-15T12:41:41;14.20;99.90
2389;DHT22;1205;47.984;7.668;2022-11-15T12:44:11;14.10;99.90
2389;DHT22;1205;47.984;7.668;2022-11-15T12:59:52;14.20;99.90
2389;DHT22;1205;47.984;7.668;2022-11-15T13:04:48;14.20;99.90
2389;DHT22;1205;47.984;7.668;2022-11-15T13:10:46;14.20;99.90
2389;DHT22;1205;47.984;7.668;2022-11-15T13:12:48;14.10;99.90
2389;DHT22;1205;47.984;7.668;2022-11-15T13:17:48;14.10;99.90
2389;DHT22;1205;47.984;7.668;2022-11-15T13:22:42;13.90;99.90
2389;DHT22;1205;47.984;7.668;2022-11-15T13:27:47;13.70;99.90
2389;DHT22;1205;47.984;7.668;2022-11-15T13:30:24;13.70;99.90
2389;DHT22;1205;47.984;7.668;2022-11-15T13:32:51;13.80;99.90
2389;DHT22;1205;47.984;7.668;2022-11-15T13:35:26;13.80;99.90
2389;DHT22;1205;47.984;7.668;2022-11-15T13:37:53;13.90;99.90
2389;DHT22;1205;47.984;7.668;2022-11-15T13:42:45;13.90;99.90
2389;DHT22;1205;47.984;7.668;2022-11-15T13:45:14;13.90;99.90
2389;DHT22;1205;47.984;7.668;2022-11-15T13:47:40;13.90;99.90
2389;DHT22;1205;47.984;7.668;2022-11-15T13:50:10;13.90;99.90
2389;DHT22;1205;47.984;7.668;2022-11-15T13:52:37;13.90;99.90
2389;DHT22;1205;47.984;7.668;2022-11-15T13:55:18;13.80;99.90
2389;DHT22;1205;47.984;7.668;2022-11-15T13:57:54;13.80;99.90
2389;DHT22;1205;47.984;7.668;2022-11-15T14:00:37;13.80;99.90
2389;DHT22;1205;47.984;7.668;2022-11-15T14:05:39;13.90;99.90
2389;DHT22;1205;47.984;7.668;2022-11-15T14:10:45;13.70;99.90
2389;DHT22;1205;47.984;7.668;2022-11-15T14:13:37;13.80;99.90
2389;DHT22;1205;47.984;7.668;2022-11-15T14:16:18;13.80;99.90
2389;DHT22;1205;47.984;7.668;2022-11-15T14:18:49;13.80;99.90
2389;DHT22;1205;47.984;7.668;2022-11-15T14:21:15;13.90;99.90
2389;DHT22;1205;47.984;7.668;2022-11-15T14:23:41;13.90;99.90
2389;DHT22;1205;47.984;7.668;2022-11-15T14:26:33;13.90;99.90
2389;DHT22;1205;47.984;7.668;2022-11-15T14:29:27;13.90;99.90
2389;DHT22;1205;47.984;7.668;2022-11-15T14:31:55;14.00;99.90
2389;DHT22;1205;47.984;7.668;2022-11-15T14:34:32;14.00;99.90
2389;DHT22;1205;47.984;7.668;2022-11-15T14:36:57;14.00;99.90
2389;DHT22;1205;47.984;7.668;2022-11-15T14:39:23;14.00;99.90
2389;DHT22;1205;47.984;7.668;2022-11-15T14:41:50;14.00;99.90
2389;DHT22;1205;47.984;7.668;2022-11-15T14:44:16;13.90;99.90
2389;DHT22;1205;47.984;7.668;2022-11-15T14:46:43;14.00;99.90
2389;DHT22;1205;47.984;7.668;2022-11-15T14:49:09;13.90;99.90
2389;DHT22;1205;47.984;7.668;2022-11-15T14:51:35;13.80;99.90
2389;DHT22;1205;47.984;7.668;2022-11-15T14:54:01;13.90;99.90
2389;DHT22;1205;47.984;7.668;2022-11-15T14:56:26;13.80;99.90
2389;DHT22;1205;47.984;7.668;2022-11-15T14:58:52;13.80;99.90
2389;DHT22;1205;47.984;7.668;2022-11-15T15:01:21;13.80;99.90
2389;DHT22;1205;47.984;7.668;2022-11-15T15:03:47;13.90;99.90
2389;DHT22;1205;47.984;7.668;2022-11-15T15:06:12;13.80;99.90
2389;DHT22;1205;47.984;7.668;2022-11-15T15:08:41;13.90;99.90
2389;DHT22;1205;47.984;7.668;2022-11-15T15:11:21;13.90;99.90
2389;DHT22;1205;47.984;7.668;2022-11-15T15:13:48;13.80;99.90
2389;DHT22;1205;47.984;7.668;2022-11-15T15:16:13;13.70;99.90
2389;DHT22;1205;47.984;7.668;2022-11-15T15:18:39;13.70;99.90
2389;DHT22;1205;47.984;7.668;2022-11-15T15:21:17;13.70;99.90
2389;DHT22;1205;47.984;7.668;2022-11-15T15:23:44;13.60;99.90
2389;DHT22;1205;47.984;7.668;2022-11-15T15:26:09;13.60;99.90
2389;DHT22;1205;47.984;7.668;2022-11-15T15:28:35;13.50;99.90
2389;DHT22;1205;47.984;7.668;2022-11-15T15:31:01;13.50;99.90
2389;DHT22;1205;47.984;7.668;2022-11-15T15:33:27;13.60;99.90
2389;DHT22;1205;47.984;7.668;2022-11-15T15:35:52;13.60;99.90
2389;DHT22;1205;47.984;7.668;2022-11-15T15:38:18;13.50;99.90
2389;DHT22;1205;47.984;7.668;2022-11-15T15:40:43;13.40;99.90
2389;DHT22;1205;47.984;7.668;2022-11-15T15:43:09;13.40;99.90
2389;DHT22;1205;47.984;7.668;2022-11-15T15:45:37;13.40;99.90
2389;DHT22;1205;47.984;7.668;2022-11-15T15:48:03;13.30;99.90
2389;DHT22;1205;47.984;7.668;2022-11-15T15:50:32;13.30;99.90
2389;DHT22;1205;47.984;7.668;2022-11-15T15:53:01;13.30;99.90
2389;DHT22;1205;47.984;7.668;2022-11-15T15:55:27;13.30;99.90
2389;DHT22;1205;47.984;7.668;2022-11-15T15:57:54;13.30;99.90
2389;DHT22;1205;47.984;7.668;2022-11-15T16:00:21;13.20;99.90
2389;DHT22;1205;47.984;7.668;2022-11-15T16:02:48;13.20;99.90
2389;DHT22;1205;47.984;7.668;2022-11-15T16:05:14;13.20;99.90
2389;DHT22;1205;47.984;7.668;2022-11-15T16:07:40;13.20;99.90
2389;DHT22;1205;47.984;7.668;2022-11-15T16:10:26;13.20;99.90
2389;DHT22;1205;47.984;7.668;2022-11-15T16:12:53;13.20;99.90
2389;DHT22;1205;47.984;7.668;2022-11-15T16:15:21;13.20;99.90
2389;DHT22;1205;47.984;7.668;2022-11-15T16:17:52;13.10;99.90
2389;DHT22;1205;47.984;7.668;2022-11-15T16:20:25;13.20;99.90
2389;DHT22;1205;47.984;7.668;2022-11-15T16:22:53;13.10;99.90
2389;DHT22;1205;47.984;7.668;2022-11-15T16:25:18;13.10;99.90
2389;DHT22;1205;47.984;7.668;2022-11-15T16:27:44;13.10;99.90
2389;DHT22;1205;47.984;7.668;2022-11-15T16:30:15;13.00;99.90
2389;DHT22;1205;47.984;7.668;2022-11-15T16:32:41;13.10;99.90
2389;DHT22;1205;47.984;7.668;2022-11-15T16:35:10;13.00;99.90
2389;DHT22;1205;47.984;7.668;2022-11-15T16:37:36;13.00;99.90
2389;DHT22;1205;47.984;7.668;2022-11-15T16:40:02;13.00;99.90
2389;DHT22;1205;47.984;7.668;2022-11-15T16:42:28;13.00;99.90
2389;DHT22;1205;47.984;7.668;2022-11-15T16:44:53;12.90;99.90
2389;DHT22;1205;47.984;7.668;2022-11-15T16:47:19;12.90;99.90
2389;DHT22;1205;47.984;7.668;2022-11-15T16:49:45;13.00;99.90
2389;DHT22;1205;47.984;7.668;2022-11-15T16:52:10;13.00;99.90
2389;DHT22;1205;47.984;7.668;2022-11-15T16:54:36;12.90;99.90
2389;DHT22;1205;47.984;7.668;2022-11-15T16:57:01;12.90;99.90
2389;DHT22;1205;47.984;7.668;2022-11-15T16:59:27;13.00;99.90
2389;DHT22;1205;47.984;7.668;2022-11-15T17:01:52;13.00;99.90
2389;DHT22;1205;47.984;7.668;2022-11-15T17:04:18;12.90;99.90
2389;DHT22;1205;47.984;7.668;2022-11-15T17:06:47;12.90;99.90
2389;DHT22;1205;47.984;7.668;2022-11-15T17:09:16;12.90;99.90
2389;DHT22;1205;47.984;7.668;2022-11-15T17:11:42;12.90;99.90
2389;DHT22;1205;47.984;7.668;2022-11-15T17:14:08;12.90;99.90
2389;DHT22;1205;47.984;7.668;2022-11-15T17:16:34;12.90;99.90
2389;DHT22;1205;47.984;7.668;2022-11-15T17:19:00;12.80;99.90
2389;DHT22;1205;47.984;7.668;2022-11-15T17:21:26;12.90;99.90
2389;DHT22;1205;47.984;7.668;2022-11-15T17:23:53;12.80;99.90
2389;DHT22;1205;47.984;7.668;2022-11-15T17:26:19;12.80;99.90
2389;DHT22;1205;47.984;7.668;2022-11-15T17:28:45;12.80;99.90
2389;DHT22;1205;47.984;7.668;2022-11-15T17:31:12;12.70;99.90
2389;DHT22;1205;47.984;7.668;2022-11-15T17:33:38;12.70;99.90
2389;DHT22;1205;47.984;7.668;2022-11-15T17:36:10;12.70;99.90
2389;DHT22;1205;47.984;7.668;2022-11-15T17:38:36;12.60;99.90
2389;DHT22;1205;47.984;7.668;2022-11-15T17:41:03;12.60;99.90
2389;DHT22;1205;47.984;7.668;2022-11-15T17:43:30;12.70;99.90
2389;DHT22;1205;47.984;7.668;2022-11-15T17:45:56;12.60;99.90
2389;DHT22;1205;47.984;7.668;2022-11-15T17:48:22;12.50;99.90
2389;DHT22;1205;47.984;7.668;2022-11-15T17:50:59;12.50;99.90
2389;DHT22;1205;47.984;7.668;2022-11-15T17:53:26;12.40;99.90
2389;DHT22;1205;47.984;7.668;2022-11-15T17:55:52;12.50;99.90
2389;DHT22;1205;47.984;7.668;2022-11-15T17:58:18;12.50;99.90
2389;DHT22;1205;47.984;7.668;2022-11-15T18:00:47;12.50;99.90
2389;DHT22;1205;47.984;7.668;2022-11-15T18:03:14;12.50;99.90
2389;DHT22;1205;47.984;7.668;2022-11-15T18:05:39;12.50;99.90
2389;DHT22;1205;47.984;7.668;2022-11-15T18:08:11;12.60;99.90
2389;DHT22;1205;47.984;7.668;2022-11-15T18:10:40;12.60;99.90